sensor_id;sensor_type;location;lat;lon;timestamp;P1;durP1;ratioP1;P2;durP2;ratioP2
26864;SDS011;40618;51.166;10.322;2022-08-19T00:00:57;5.53;;;4.18;;
26864;SDS011;40618;51.166;10.322;2022-08-19T00:03:36;4.78;;;4.28;;
26864;SDS011;40618;51.166;10.322;2022-08-19T00:06:14;4.97;;;4.50;;
26864;SDS011;40618;51.166;10.322;2022-08-19T00:08:57;4.35;;;3.95;;
26864;SDS011;40618;51.166;10.322;2022-08-19T00:11:37;5.22;;;4.35;;
26864;SDS011;40618;51.166;10.322;2022-08-19T00:14:17;5.32;;;4.35;;
26864;SDS011;40618;51.166;10.322;2022-08-19T00:19:36;5.43;;;3.75;;
26864;SDS011;40618;51.166;10.322;2022-08-19T00:22:15;6.18;;;4.50;;
26864;SDS011;40618;51.166;10.322;2022-08-19T00:24:55;5.00;;;4.50;;
26864;SDS011;40618;51.166;10.322;2022-08-19T00:27:38;4.80;;;4.25;;
26864;SDS011;40618;51.166;10.322;2022-08-19T00:30:17;6.65;;;4.82;;
26864;SDS011;40618;51.166;10.322;2022-08-19T00:32:56;6.20;;;4.63;;
26864;SDS011;40618;51.166;10.322;2022-08-19T00:35:35;6.22;;;4.38;;
26864;SDS011;40618;51.166;10.322;2022-08-19T00:41:14;5.50;;;4.53;;
26864;SDS011;40618;51.166;10.322;2022-08-19T00:46:45;6.10;;;5.20;;
26864;SDS011;40618;51.166;10.322;2022-08-19T00:49:35;9.55;;;5.70;;
26864;SDS011;40618;51.166;10.322;2022-08-19T00:52:23;6.90;;;5.25;;
26864;SDS011;40618;51.166;10.322;2022-08-19T00:55:24;6.80;;;5.90;;
26864;SDS011;40618;51.166;10.322;2022-08-19T00:58:06;9.43;;;7.40;;
26864;SDS011;40618;51.166;10.322;2022-08-19T01:00:52;9.93;;;6.60;;
26864;SDS011;40618;51.166;10.322;2022-08-19T01:03:30;7.72;;;6.03;;
26864;SDS011;40618;51.166;10.322;2022-08-19T01:06:28;7.45;;;6.72;;
26864;SDS011;40618;51.166;10.322;2022-08-19T01:09:08;7.93;;;6.93;;
26864;SDS011;40618;51.166;10.322;2022-08-19T01:11:47;7.38;;;6.68;;
26864;SDS011;40618;51.166;10.322;2022-08-19T01:14:25;10.77;;;8.45;;
26864;SDS011;40618;51.166;10.322;2022-08-19T01:17:03;11.60;;;8.00;;
26864;SDS011;40618;51.166;10.322;2022-08-19T01:19:44;11.60;;;8.10;;
26864;SDS011;40618;51.166;10.322;2022-08-19T01:22:39;9.73;;;7.63;;
26864;SDS011;40618;51.166;10.322;2022-08-19T01:25:28;6.95;;;6.25;;
26864;SDS011;40618;51.166;10.322;2022-08-19T01:28:15;6.32;;;5.68;;
26864;SDS011;40618;51.166;10.322;2022-08-19T01:31:17;8.07;;;6.38;;
26864;SDS011;40618;51.166;10.322;2022-08-19T01:34:03;8.00;;;7.18;;
26864;SDS011;40618;51.166;10.322;2022-08-19T01:36:43;9.07;;;7.88;;
26864;SDS011;40618;51.166;10.322;2022-08-19T01:39:24;9.13;;;7.68;;
26864;SDS011;40618;51.166;10.322;2022-08-19T01:42:03;8.63;;;7.75;;
26864;SDS011;40618;51.166;10.322;2022-08-19T01:44:44;9.95;;;8.45;;
26864;SDS011;40618;51.166;10.322;2022-08-19T01:47:22;10.30;;;9.25;;
26864;SDS011;40618;51.166;10.322;2022-08-19T01:50:01;11.45;;;9.23;;
26864;SDS011;40618;51.166;10.322;2022-08-19T01:52:41;12.50;;;9.73;;
26864;SDS011;40618;51.166;10.322;2022-08-19T01:55:21;10.82;;;9.55;;
26864;SDS011;40618;51.166;10.322;2022-08-19T01:58:01;9.90;;;8.52;;
26864;SDS011;40618;51.166;10.322;2022-08-19T02:00:43;13.23;;;10.45;;
26864;SDS011;40618;51.166;10.322;2022-08-19T02:03:22;12.18;;;9.80;;
26864;SDS011;40618;51.166;10.322;2022-08-19T02:06:01;12.13;;;8.60;;
26864;SDS011;40618;51.166;10.322;2022-08-19T02:08:42;11.55;;;9.20;;
26864;SDS011;40618;51.166;10.322;2022-08-19T02:11:33;13.57;;;9.13;;
26864;SDS011;40618;51.166;10.322;2022-08-19T02:14:13;13.00;;;10.35;;
26864;SDS011;40618;51.166;10.322;2022-08-19T02:16:51;13.80;;;10.23;;
26864;SDS011;40618;51.166;10.322;2022-08-19T02:19:29;12.27;;;9.90;;
26864;SDS011;40618;51.166;10.322;2022-08-19T02:22:09;13.30;;;11.40;;
26864;SDS011;40618;51.166;10.322;2022-08-19T02:24:47;14.10;;;11.05;;
26864;SDS011;40618;51.166;10.322;2022-08-19T02:27:25;13.50;;;11.70;;
26864;SDS011;40618;51.166;10.322;2022-08-19T02:30:05;13.48;;;10.93;;
26864;SDS011;40618;51.166;10.322;2022-08-19T02:32:50;14.02;;;10.93;;
26864;SDS011;40618;51.166;10.322;2022-08-19T02:35:30;14.10;;;9.90;;
26864;SDS011;40618;51.166;10.322;2022-08-19T02:38:08;15.45;;;11.27;;
26864;SDS011;40618;51.166;10.322;2022-08-19T02:41:03;13.80;;;10.52;;
26864;SDS011;40618;51.166;10.322;2022-08-19T02:43:48;12.68;;;10.82;;
26864;SDS011;40618;51.166;10.322;2022-08-19T02:46:47;14.23;;;10.60;;
26864;SDS011;40618;51.166;10.322;2022-08-19T02:49:28;12.35;;;10.73;;
26864;SDS011;40618;51.166;10.322;2022-08-19T02:52:10;14.75;;;11.35;;
26864;SDS011;40618;51.166;10.322;2022-08-19T02:54:49;12.95;;;11.23;;
26864;SDS011;40618;51.166;10.322;2022-08-19T02:57:27;14.57;;;11.05;;
26864;SDS011;40618;51.166;10.322;2022-08-19T03:00:08;15.77;;;11.70;;
26864;SDS011;40618;51.166;10.322;2022-08-19T03:02:50;16.23;;;11.93;;
26864;SDS011;40618;51.166;10.322;2022-08-19T03:05:28;14.13;;;10.48;;
26864;SDS011;40618;51.166;10.322;2022-08-19T03:08:27;14.35;;;11.55;;
26864;SDS011;40618;51.166;10.322;2022-08-19T03:11:05;14.70;;;11.45;;
26864;SDS011;40618;51.166;10.322;2022-08-19T03:13:49;12.95;;;11.48;;
26864;SDS011;40618;51.166;10.322;2022-08-19T03:16:29;14.15;;;12.02;;
26864;SDS011;40618;51.166;10.322;2022-08-19T03:19:10;16.52;;;11.52;;
26864;SDS011;40618;51.166;10.322;2022-08-19T03:21:48;16.50;;;13.40;;
26864;SDS011;40618;51.166;10.322;2022-08-19T03:24:28;17.65;;;12.30;;
26864;SDS011;40618;51.166;10.322;2022-08-19T03:27:07;14.85;;;11.77;;
26864;SDS011;40618;51.166;10.322;2022-08-19T03:29:45;12.48;;;11.13;;
26864;SDS011;40618;51.166;10.322;2022-08-19T03:32:25;14.98;;;12.90;;
26864;SDS011;40618;51.166;10.322;2022-08-19T03:35:08;14.57;;;10.68;;
26864;SDS011;40618;51.166;10.322;2022-08-19T03:37:46;15.32;;;10.73;;
26864;SDS011;40618;51.166;10.322;2022-08-19T03:40:25;12.70;;;11.07;;
26864;SDS011;40618;51.166;10.322;2022-08-19T03:43:03;12.90;;;9.40;;
26864;SDS011;40618;51.166;10.322;2022-08-19T03:45:43;10.75;;;9.50;;
26864;SDS011;40618;51.166;10.322;2022-08-19T03:48:21;12.30;;;9.35;;
26864;SDS011;40618;51.166;10.322;2022-08-19T03:50:59;11.20;;;8.88;;
26864;SDS011;40618;51.166;10.322;2022-08-19T03:53:38;9.23;;;8.15;;
26864;SDS011;40618;51.166;10.322;2022-08-19T03:56:16;8.65;;;7.65;;
26864;SDS011;40618;51.166;10.322;2022-08-19T03:58:56;11.07;;;8.45;;
26864;SDS011;40618;51.166;10.322;2022-08-19T04:01:36;9.00;;;7.20;;
26864;SDS011;40618;51.166;10.322;2022-08-19T04:04:14;7.38;;;6.38;;
26864;SDS011;40618;51.166;10.322;2022-08-19T04:06:56;8.38;;;6.43;;
26864;SDS011;40618;51.166;10.322;2022-08-19T04:09:34;9.35;;;5.53;;
26864;SDS011;40618;51.166;10.322;2022-08-19T04:12:13;7.20;;;5.93;;
26864;SDS011;40618;51.166;10.322;2022-08-19T04:14:52;8.75;;;5.43;;
26864;SDS011;40618;51.166;10.322;2022-08-19T04:17:30;7.18;;;4.45;;
26864;SDS011;40618;51.166;10.322;2022-08-19T04:20:08;7.85;;;4.53;;
26864;SDS011;40618;51.166;10.322;2022-08-19T04:22:47;5.18;;;3.35;;
26864;SDS011;40618;51.166;10.322;2022-08-19T04:25:25;6.78;;;5.22;;
26864;SDS011;40618;51.166;10.322;2022-08-19T04:28:03;5.53;;;4.88;;
26864;SDS011;40618;51.166;10.322;2022-08-19T04:30:43;4.72;;;3.70;;
26864;SDS011;40618;51.166;10.322;2022-08-19T04:33:25;3.95;;;3.00;;
26864;SDS011;40618;51.166;10.322;2022-08-19T04:36:05;6.22;;;2.83;;
26864;SDS011;40618;51.166;10.322;2022-08-19T04:38:44;4.55;;;2.95;;
26864;SDS011;40618;51.166;10.322;2022-08-19T04:41:23;5.20;;;3.20;;
26864;SDS011;40618;51.166;10.322;2022-08-19T04:44:20;6.45;;;3.28;;
26864;SDS011;40618;51.166;10.322;2022-08-19T04:46:59;5.53;;;3.10;;
26864;SDS011;40618;51.166;10.322;2022-08-19T04:49:47;4.38;;;2.55;;
26864;SDS011;40618;51.166;10.322;2022-08-19T04:52:26;6.13;;;2.95;;
26864;SDS011;40618;51.166;10.322;2022-08-19T04:55:04;6.57;;;2.97;;
26864;SDS011;40618;51.166;10.322;2022-08-19T04:57:43;5.47;;;3.53;;
26864;SDS011;40618;51.166;10.322;2022-08-19T05:00:21;5.10;;;3.00;;
26864;SDS011;40618;51.166;10.322;2022-08-19T05:03:00;4.45;;;3.50;;
26864;SDS011;40618;51.166;10.322;2022-08-19T05:05:44;4.53;;;3.20;;
26864;SDS011;40618;51.166;10.322;2022-08-19T05:08:25;4.70;;;3.33;;
26864;SDS011;40618;51.166;10.322;2022-08-19T05:11:14;7.03;;;3.80;;
26864;SDS011;40618;51.166;10.322;2022-08-19T05:14:00;5.35;;;3.88;;
26864;SDS011;40618;51.166;10.322;2022-08-19T05:16:39;4.45;;;3.80;;
26864;SDS011;40618;51.166;10.322;2022-08-19T05:19:18;4.93;;;3.45;;
26864;SDS011;40618;51.166;10.322;2022-08-19T05:22:15;5.78;;;3.90;;
26864;SDS011;40618;51.166;10.322;2022-08-19T05:25:13;4.93;;;3.35;;
26864;SDS011;40618;51.166;10.322;2022-08-19T05:27:56;4.38;;;2.90;;
26864;SDS011;40618;51.166;10.322;2022-08-19T05:30:34;3.60;;;2.95;;
26864;SDS011;40618;51.166;10.322;2022-08-19T05:33:23;5.28;;;2.65;;
26864;SDS011;40618;51.166;10.322;2022-08-19T05:36:02;6.00;;;3.50;;
26864;SDS011;40618;51.166;10.322;2022-08-19T05:38:41;5.40;;;2.83;;
26864;SDS011;40618;51.166;10.322;2022-08-19T05:41:20;3.75;;;2.88;;
26864;SDS011;40618;51.166;10.322;2022-08-19T05:44:07;3.20;;;2.50;;
26864;SDS011;40618;51.166;10.322;2022-08-19T05:46:46;3.42;;;2.70;;
26864;SDS011;40618;51.166;10.322;2022-08-19T05:49:26;4.68;;;3.72;;
26864;SDS011;40618;51.166;10.322;2022-08-19T05:52:07;3.33;;;2.50;;
26864;SDS011;40618;51.166;10.322;2022-08-19T05:54:54;4.35;;;2.53;;
26864;SDS011;40618;51.166;10.322;2022-08-19T05:57:33;2.55;;;2.30;;
26864;SDS011;40618;51.166;10.322;2022-08-19T06:00:11;5.35;;;2.72;;
26864;SDS011;40618;51.166;10.322;2022-08-19T06:02:51;3.17;;;2.43;;
26864;SDS011;40618;51.166;10.322;2022-08-19T06:05:30;2.97;;;2.58;;
26864;SDS011;40618;51.166;10.322;2022-08-19T06:08:22;2.60;;;2.20;;
26864;SDS011;40618;51.166;10.322;2022-08-19T06:13:53;6.65;;;2.10;;
26864;SDS011;40618;51.166;10.322;2022-08-19T06:16:37;3.92;;;2.15;;
26864;SDS011;40618;51.166;10.322;2022-08-19T06:19:18;2.28;;;1.90;;
26864;SDS011;40618;51.166;10.322;2022-08-19T06:21:59;2.55;;;2.13;;
26864;SDS011;40618;51.166;10.322;2022-08-19T06:24:38;3.60;;;2.25;;
26864;SDS011;40618;51.166;10.322;2022-08-19T06:27:16;3.55;;;2.42;;
26864;SDS011;40618;51.166;10.322;2022-08-19T06:29:54;2.38;;;1.90;;
26864;SDS011;40618;51.166;10.322;2022-08-19T06:32:32;4.72;;;2.50;;
26864;SDS011;40618;51.166;10.322;2022-08-19T06:35:10;3.85;;;2.35;;
26864;SDS011;40618;51.166;10.322;2022-08-19T06:37:51;3.33;;;2.47;;
26864;SDS011;40618;51.166;10.322;2022-08-19T06:40:30;3.88;;;1.98;;
26864;SDS011;40618;51.166;10.322;2022-08-19T06:43:09;4.63;;;2.40;;
26864;SDS011;40618;51.166;10.322;2022-08-19T06:45:47;4.00;;;2.40;;
26864;SDS011;40618;51.166;10.322;2022-08-19T06:48:30;2.78;;;1.95;;
26864;SDS011;40618;51.166;10.322;2022-08-19T06:51:14;1.90;;;1.70;;
26864;SDS011;40618;51.166;10.322;2022-08-19T06:53:56;2.17;;;1.98;;
26864;SDS011;40618;51.166;10.322;2022-08-19T06:56:34;2.13;;;1.88;;
26864;SDS011;40618;51.166;10.322;2022-08-19T06:59:15;1.75;;;1.60;;
26864;SDS011;40618;51.166;10.322;2022-08-19T07:01:59;1.90;;;1.42;;
26864;SDS011;40618;51.166;10.322;2022-08-19T07:04:43;2.67;;;1.60;;
26864;SDS011;40618;51.166;10.322;2022-08-19T07:07:22;2.22;;;1.40;;
26864;SDS011;40618;51.166;10.322;2022-08-19T07:10:01;3.95;;;1.92;;
26864;SDS011;40618;51.166;10.322;2022-08-19T07:12:43;3.28;;;1.50;;
26864;SDS011;40618;51.166;10.322;2022-08-19T07:15:22;3.63;;;1.30;;
26864;SDS011;40618;51.166;10.322;2022-08-19T07:18:00;1.98;;;1.30;;
26864;SDS011;40618;51.166;10.322;2022-08-19T07:20:39;2.05;;;1.33;;
26864;SDS011;40618;51.166;10.322;2022-08-19T07:23:18;1.20;;;1.10;;
26864;SDS011;40618;51.166;10.322;2022-08-19T07:26:10;2.17;;;1.20;;
26864;SDS011;40618;51.166;10.322;2022-08-19T07:28:53;1.30;;;1.20;;
26864;SDS011;40618;51.166;10.322;2022-08-19T07:31:33;3.13;;;1.00;;
26864;SDS011;40618;51.166;10.322;2022-08-19T07:36:53;1.30;;;1.10;;
26864;SDS011;40618;51.166;10.322;2022-08-19T07:39:33;1.67;;;1.10;;
26864;SDS011;40618;51.166;10.322;2022-08-19T07:42:13;1.35;;;1.08;;
26864;SDS011;40618;51.166;10.322;2022-08-19T07:44:51;2.38;;;1.33;;
26864;SDS011;40618;51.166;10.322;2022-08-19T07:47:29;1.95;;;1.23;;
26864;SDS011;40618;51.166;10.322;2022-08-19T07:50:28;1.90;;;1.80;;
26864;SDS011;40618;51.166;10.322;2022-08-19T07:53:06;1.77;;;1.60;;
26864;SDS011;40618;51.166;10.322;2022-08-19T07:55:44;1.10;;;1.00;;
26864;SDS011;40618;51.166;10.322;2022-08-19T07:58:22;2.40;;;1.60;;
26864;SDS011;40618;51.166;10.322;2022-08-19T08:01:01;3.10;;;1.50;;
26864;SDS011;40618;51.166;10.322;2022-08-19T08:06:38;1.30;;;1.10;;
26864;SDS011;40618;51.166;10.322;2022-08-19T08:09:37;6.93;;;5.55;;
26864;SDS011;40618;51.166;10.322;2022-08-19T08:12:20;2.38;;;2.17;;
26864;SDS011;40618;51.166;10.322;2022-08-19T08:15:12;2.05;;;1.48;;
26864;SDS011;40618;51.166;10.322;2022-08-19T08:17:55;2.55;;;1.35;;
26864;SDS011;40618;51.166;10.322;2022-08-19T08:20:34;1.58;;;1.35;;
26864;SDS011;40618;51.166;10.322;2022-08-19T08:23:12;1.77;;;1.40;;
26864;SDS011;40618;51.166;10.322;2022-08-19T08:26:02;2.73;;;1.60;;
26864;SDS011;40618;51.166;10.322;2022-08-19T08:28:41;3.70;;;1.50;;
26864;SDS011;40618;51.166;10.322;2022-08-19T08:31:25;1.55;;;1.25;;
26864;SDS011;40618;51.166;10.322;2022-08-19T08:34:03;2.05;;;1.20;;
26864;SDS011;40618;51.166;10.322;2022-08-19T08:36:43;2.72;;;1.35;;
26864;SDS011;40618;51.166;10.322;2022-08-19T08:39:23;2.90;;;1.52;;
26864;SDS011;40618;51.166;10.322;2022-08-19T08:45:00;2.08;;;1.27;;
26864;SDS011;40618;51.166;10.322;2022-08-19T08:47:52;1.77;;;1.30;;
26864;SDS011;40618;51.166;10.322;2022-08-19T08:50:38;1.88;;;1.50;;
26864;SDS011;40618;51.166;10.322;2022-08-19T08:53:22;3.28;;;1.58;;
26864;SDS011;40618;51.166;10.322;2022-08-19T08:56:06;2.28;;;1.40;;
26864;SDS011;40618;51.166;10.322;2022-08-19T08:59:04;2.35;;;1.52;;
26864;SDS011;40618;51.166;10.322;2022-08-19T09:01:58;2.20;;;1.38;;
26864;SDS011;40618;51.166;10.322;2022-08-19T09:04:36;1.75;;;1.50;;
26864;SDS011;40618;51.166;10.322;2022-08-19T09:10:21;2.03;;;1.27;;
26864;SDS011;40618;51.166;10.322;2022-08-19T09:16:35;1.15;;;1.00;;
26864;SDS011;40618;51.166;10.322;2022-08-19T09:19:15;3.97;;;1.65;;
26864;SDS011;40618;51.166;10.322;2022-08-19T09:21:58;1.08;;;1.00;;
26864;SDS011;40618;51.166;10.322;2022-08-19T09:24:37;1.70;;;1.20;;
26864;SDS011;40618;51.166;10.322;2022-08-19T09:27:16;1.13;;;1.02;;
26864;SDS011;40618;51.166;10.322;2022-08-19T09:29:55;1.45;;;1.23;;
26864;SDS011;40618;51.166;10.322;2022-08-19T09:32:33;1.13;;;1.02;;
26864;SDS011;40618;51.166;10.322;2022-08-19T09:35:12;1.25;;;1.15;;
26864;SDS011;40618;51.166;10.322;2022-08-19T09:37:51;1.58;;;1.00;;
26864;SDS011;40618;51.166;10.322;2022-08-19T09:40:33;1.58;;;0.93;;
26864;SDS011;40618;51.166;10.322;2022-08-19T09:43:14;1.67;;;1.20;;
26864;SDS011;40618;51.166;10.322;2022-08-19T09:46:09;1.60;;;1.35;;
26864;SDS011;40618;51.166;10.322;2022-08-19T09:48:50;2.63;;;1.38;;
26864;SDS011;40618;51.166;10.322;2022-08-19T09:51:29;2.00;;;1.30;;
26864;SDS011;40618;51.166;10.322;2022-08-19T09:54:08;1.65;;;1.10;;
26864;SDS011;40618;51.166;10.322;2022-08-19T09:56:47;1.20;;;1.10;;
26864;SDS011;40618;51.166;10.322;2022-08-19T09:59:26;1.33;;;1.20;;
26864;SDS011;40618;51.166;10.322;2022-08-19T10:02:09;2.63;;;1.65;;
26864;SDS011;40618;51.166;10.322;2022-08-19T10:04:48;4.10;;;1.20;;
26864;SDS011;40618;51.166;10.322;2022-08-19T10:07:45;1.25;;;1.15;;
26864;SDS011;40618;51.166;10.322;2022-08-19T10:10:24;2.58;;;1.20;;
26864;SDS011;40618;51.166;10.322;2022-08-19T10:13:03;1.35;;;0.98;;
26864;SDS011;40618;51.166;10.322;2022-08-19T10:15:41;1.42;;;1.25;;
26864;SDS011;40618;51.166;10.322;2022-08-19T10:18:25;1.77;;;1.35;;
26864;SDS011;40618;51.166;10.322;2022-08-19T10:21:08;1.33;;;1.23;;
26864;SDS011;40618;51.166;10.322;2022-08-19T10:23:57;2.63;;;2.05;;
26864;SDS011;40618;51.166;10.322;2022-08-19T10:26:41;1.52;;;1.42;;
26864;SDS011;40618;51.166;10.322;2022-08-19T10:29:22;2.92;;;1.70;;
26864;SDS011;40618;51.166;10.322;2022-08-19T10:32:09;1.73;;;1.45;;
26864;SDS011;40618;51.166;10.322;2022-08-19T10:34:50;1.45;;;1.23;;
26864;SDS011;40618;51.166;10.322;2022-08-19T10:37:34;1.40;;;1.30;;
26864;SDS011;40618;51.166;10.322;2022-08-19T10:40:33;2.38;;;1.60;;
26864;SDS011;40618;51.166;10.322;2022-08-19T10:43:12;2.25;;;1.38;;
26864;SDS011;40618;51.166;10.322;2022-08-19T10:45:54;1.77;;;1.08;;
26864;SDS011;40618;51.166;10.322;2022-08-19T10:48:34;2.42;;;1.90;;
26864;SDS011;40618;51.166;10.322;2022-08-19T10:51:13;4.40;;;1.83;;
26864;SDS011;40618;51.166;10.322;2022-08-19T10:54:10;1.85;;;1.40;;
26864;SDS011;40618;51.166;10.322;2022-08-19T10:56:48;2.50;;;1.77;;
26864;SDS011;40618;51.166;10.322;2022-08-19T10:59:29;2.95;;;1.88;;
26864;SDS011;40618;51.166;10.322;2022-08-19T11:02:12;1.92;;;1.60;;
26864;SDS011;40618;51.166;10.322;2022-08-19T11:04:50;1.33;;;1.23;;
26864;SDS011;40618;51.166;10.322;2022-08-19T11:07:30;2.40;;;2.00;;
26864;SDS011;40618;51.166;10.322;2022-08-19T11:10:08;1.75;;;1.65;;
26864;SDS011;40618;51.166;10.322;2022-08-19T11:12:56;2.13;;;1.33;;
26864;SDS011;40618;51.166;10.322;2022-08-19T11:15:35;3.15;;;2.33;;
26864;SDS011;40618;51.166;10.322;2022-08-19T11:18:14;2.15;;;1.83;;
26864;SDS011;40618;51.166;10.322;2022-08-19T11:20:54;2.13;;;1.48;;
26864;SDS011;40618;51.166;10.322;2022-08-19T11:23:32;2.40;;;1.40;;
26864;SDS011;40618;51.166;10.322;2022-08-19T11:26:10;1.60;;;1.50;;
26864;SDS011;40618;51.166;10.322;2022-08-19T11:28:48;1.48;;;1.25;;
26864;SDS011;40618;51.166;10.322;2022-08-19T11:31:31;2.65;;;1.70;;
26864;SDS011;40618;51.166;10.322;2022-08-19T11:34:16;4.75;;;2.22;;
26864;SDS011;40618;51.166;10.322;2022-08-19T11:36:57;3.38;;;1.50;;
26864;SDS011;40618;51.166;10.322;2022-08-19T11:39:36;2.03;;;1.55;;
26864;SDS011;40618;51.166;10.322;2022-08-19T11:42:15;4.47;;;1.60;;
26864;SDS011;40618;51.166;10.322;2022-08-19T11:45:14;2.78;;;1.90;;
26864;SDS011;40618;51.166;10.322;2022-08-19T11:47:52;2.83;;;2.03;;
26864;SDS011;40618;51.166;10.322;2022-08-19T11:50:30;2.65;;;2.42;;
26864;SDS011;40618;51.166;10.322;2022-08-19T11:53:09;5.45;;;1.95;;
26864;SDS011;40618;51.166;10.322;2022-08-19T11:55:47;2.45;;;1.80;;
26864;SDS011;40618;51.166;10.322;2022-08-19T11:58:26;2.63;;;2.22;;
26864;SDS011;40618;51.166;10.322;2022-08-19T12:01:06;3.08;;;1.70;;
26864;SDS011;40618;51.166;10.322;2022-08-19T12:03:48;1.95;;;1.60;;
26864;SDS011;40618;51.166;10.322;2022-08-19T12:06:31;2.90;;;1.30;;
26864;SDS011;40618;51.166;10.322;2022-08-19T12:09:11;1.67;;;1.58;;
26864;SDS011;40618;51.166;10.322;2022-08-19T12:11:49;3.50;;;1.40;;
26864;SDS011;40618;51.166;10.322;2022-08-19T12:14:28;15.25;;;10.52;;
26864;SDS011;40618;51.166;10.322;2022-08-19T12:17:07;2.83;;;2.45;;
26864;SDS011;40618;51.166;10.322;2022-08-19T12:19:46;1.65;;;1.55;;
26864;SDS011;40618;51.166;10.322;2022-08-19T12:22:24;3.40;;;1.80;;
26864;SDS011;40618;51.166;10.322;2022-08-19T12:25:04;2.05;;;1.83;;
26864;SDS011;40618;51.166;10.322;2022-08-19T12:27:43;2.40;;;1.50;;
26864;SDS011;40618;51.166;10.322;2022-08-19T12:30:33;3.75;;;2.72;;
26864;SDS011;40618;51.166;10.322;2022-08-19T12:33:14;2.28;;;1.55;;
26864;SDS011;40618;51.166;10.322;2022-08-19T12:35:52;1.38;;;1.10;;
26864;SDS011;40618;51.166;10.322;2022-08-19T12:38:31;1.45;;;1.27;;
26864;SDS011;40618;51.166;10.322;2022-08-19T12:43:54;10.13;;;7.32;;
26864;SDS011;40618;51.166;10.322;2022-08-19T12:46:32;4.03;;;3.53;;
26864;SDS011;40618;51.166;10.322;2022-08-19T12:49:11;7.22;;;6.43;;
26864;SDS011;40618;51.166;10.322;2022-08-19T12:52:09;3.28;;;2.10;;
26864;SDS011;40618;51.166;10.322;2022-08-19T12:54:51;2.00;;;1.63;;
26864;SDS011;40618;51.166;10.322;2022-08-19T12:57:33;11.02;;;7.32;;
26864;SDS011;40618;51.166;10.322;2022-08-19T13:00:15;3.75;;;2.83;;
26864;SDS011;40618;51.166;10.322;2022-08-19T13:02:58;3.13;;;2.40;;
26864;SDS011;40618;51.166;10.322;2022-08-19T13:05:37;2.30;;;2.08;;
26864;SDS011;40618;51.166;10.322;2022-08-19T13:08:15;3.15;;;1.40;;
26864;SDS011;40618;51.166;10.322;2022-08-19T13:10:54;2.00;;;1.23;;
26864;SDS011;40618;51.166;10.322;2022-08-19T13:13:32;1.63;;;1.30;;
26864;SDS011;40618;51.166;10.322;2022-08-19T13:16:15;1.65;;;1.20;;
26864;SDS011;40618;51.166;10.322;2022-08-19T13:18:55;3.30;;;2.90;;
26864;SDS011;40618;51.166;10.322;2022-08-19T13:21:34;1.92;;;1.83;;
26864;SDS011;40618;51.166;10.322;2022-08-19T13:24:12;6.03;;;4.90;;
26864;SDS011;40618;51.166;10.322;2022-08-19T13:26:51;2.58;;;2.38;;
26864;SDS011;40618;51.166;10.322;2022-08-19T13:29:29;2.88;;;2.63;;
26864;SDS011;40618;51.166;10.322;2022-08-19T13:32:26;1.75;;;1.65;;
26864;SDS011;40618;51.166;10.322;2022-08-19T13:35:24;1.58;;;1.23;;
26864;SDS011;40618;51.166;10.322;2022-08-19T13:38:03;9.10;;;7.35;;
26864;SDS011;40618;51.166;10.322;2022-08-19T13:40:46;2.92;;;2.63;;
26864;SDS011;40618;51.166;10.322;2022-08-19T13:43:27;1.52;;;1.42;;
26864;SDS011;40618;51.166;10.322;2022-08-19T13:46:08;1.80;;;1.40;;
26864;SDS011;40618;51.166;10.322;2022-08-19T13:48:51;0.95;;;0.95;;
26864;SDS011;40618;51.166;10.322;2022-08-19T13:51:29;1.40;;;1.30;;
26864;SDS011;40618;51.166;10.322;2022-08-19T13:54:07;1.10;;;1.00;;
26864;SDS011;40618;51.166;10.322;2022-08-19T13:56:47;1.85;;;0.95;;
26864;SDS011;40618;51.166;10.322;2022-08-19T13:59:26;1.40;;;1.05;;
26864;SDS011;40618;51.166;10.322;2022-08-19T14:02:04;2.00;;;1.20;;
26864;SDS011;40618;51.166;10.322;2022-08-19T14:04:42;1.35;;;1.20;;
26864;SDS011;40618;51.166;10.322;2022-08-19T14:07:21;2.45;;;1.40;;
26864;SDS011;40618;51.166;10.322;2022-08-19T14:10:00;1.10;;;1.00;;
26864;SDS011;40618;51.166;10.322;2022-08-19T14:12:39;3.78;;;1.52;;
26864;SDS011;40618;51.166;10.322;2022-08-19T14:15:18;1.15;;;0.90;;
26864;SDS011;40618;51.166;10.322;2022-08-19T14:17:56;2.92;;;1.10;;
26864;SDS011;40618;51.166;10.322;2022-08-19T14:20:35;1.35;;;1.00;;
26864;SDS011;40618;51.166;10.322;2022-08-19T14:23:14;2.23;;;0.97;;
26864;SDS011;40618;51.166;10.322;2022-08-19T14:25:52;1.83;;;1.30;;
26864;SDS011;40618;51.166;10.322;2022-08-19T14:28:39;2.33;;;1.02;;
26864;SDS011;40618;51.166;10.322;2022-08-19T14:31:19;1.05;;;1.05;;
26864;SDS011;40618;51.166;10.322;2022-08-19T14:34:06;1.90;;;1.10;;
26864;SDS011;40618;51.166;10.322;2022-08-19T14:36:44;1.38;;;0.90;;
26864;SDS011;40618;51.166;10.322;2022-08-19T14:39:25;2.90;;;1.08;;
26864;SDS011;40618;51.166;10.322;2022-08-19T14:42:06;1.20;;;1.10;;
26864;SDS011;40618;51.166;10.322;2022-08-19T14:44:48;1.58;;;1.33;;
26864;SDS011;40618;51.166;10.322;2022-08-19T14:47:26;2.10;;;1.40;;
26864;SDS011;40618;51.166;10.322;2022-08-19T14:50:09;1.55;;;1.08;;
26864;SDS011;40618;51.166;10.322;2022-08-19T14:53:01;1.38;;;1.27;;
26864;SDS011;40618;51.166;10.322;2022-08-19T14:55:48;3.20;;;1.58;;
26864;SDS011;40618;51.166;10.322;2022-08-19T14:58:27;4.20;;;1.65;;
26864;SDS011;40618;51.166;10.322;2022-08-19T15:01:06;1.30;;;1.10;;
26864;SDS011;40618;51.166;10.322;2022-08-19T15:03:47;1.50;;;1.20;;
26864;SDS011;40618;51.166;10.322;2022-08-19T15:06:27;1.05;;;1.05;;
26864;SDS011;40618;51.166;10.322;2022-08-19T15:09:06;1.83;;;1.08;;
26864;SDS011;40618;51.166;10.322;2022-08-19T15:11:44;1.58;;;1.48;;
26864;SDS011;40618;51.166;10.322;2022-08-19T15:14:22;1.15;;;1.05;;
26864;SDS011;40618;51.166;10.322;2022-08-19T15:17:04;5.22;;;3.97;;
26864;SDS011;40618;51.166;10.322;2022-08-19T15:19:42;3.42;;;2.22;;
26864;SDS011;40618;51.166;10.322;2022-08-19T15:25:01;1.17;;;1.08;;
26864;SDS011;40618;51.166;10.322;2022-08-19T15:27:43;1.30;;;0.95;;
26864;SDS011;40618;51.166;10.322;2022-08-19T15:30:22;3.90;;;2.95;;
26864;SDS011;40618;51.166;10.322;2022-08-19T15:33:04;2.55;;;1.40;;
26864;SDS011;40618;51.166;10.322;2022-08-19T15:35:43;2.00;;;1.80;;
26864;SDS011;40618;51.166;10.322;2022-08-19T15:38:22;1.85;;;1.45;;
26864;SDS011;40618;51.166;10.322;2022-08-19T15:41:03;1.55;;;1.10;;
26864;SDS011;40618;51.166;10.322;2022-08-19T15:44:04;1.45;;;0.98;;
26864;SDS011;40618;51.166;10.322;2022-08-19T15:46:46;1.58;;;1.27;;
26864;SDS011;40618;51.166;10.322;2022-08-19T15:49:25;1.88;;;1.35;;
26864;SDS011;40618;51.166;10.322;2022-08-19T15:52:04;1.25;;;1.02;;
26864;SDS011;40618;51.166;10.322;2022-08-19T15:54:43;1.70;;;1.30;;
26864;SDS011;40618;51.166;10.322;2022-08-19T15:57:22;1.63;;;1.48;;
26864;SDS011;40618;51.166;10.322;2022-08-19T16:00:01;1.20;;;1.00;;
26864;SDS011;40618;51.166;10.322;2022-08-19T16:03:02;1.75;;;1.10;;
26864;SDS011;40618;51.166;10.322;2022-08-19T16:06:01;1.15;;;1.05;;
26864;SDS011;40618;51.166;10.322;2022-08-19T16:08:59;1.13;;;1.02;;
26864;SDS011;40618;51.166;10.322;2022-08-19T16:11:40;1.00;;;1.00;;
26864;SDS011;40618;51.166;10.322;2022-08-19T16:14:21;1.20;;;1.10;;
26864;SDS011;40618;51.166;10.322;2022-08-19T16:17:01;1.58;;;1.00;;
26864;SDS011;40618;51.166;10.322;2022-08-19T16:19:40;1.85;;;1.15;;
26864;SDS011;40618;51.166;10.322;2022-08-19T16:22:18;2.10;;;1.38;;
26864;SDS011;40618;51.166;10.322;2022-08-19T16:24:58;1.70;;;1.40;;
26864;SDS011;40618;51.166;10.322;2022-08-19T16:27:36;1.92;;;1.30;;